Aviation Digital Data Service (ADDS)

Output produced by METARs form (1043 UTC 30 March 2017)
found at http://aviationweather.gov/adds/metars/
 
KILG 300538Z 3006/3106 03010KT P6SM FEW250 
     FM301000 04006KT P6SM SCT250 
     FM301600 11005KT P6SM BKN180 
     FM301900 16006KT P6SM SCT050 BKN100 
     PROB30 3104/3106 5SM -RA BKN035